createdAt,value
2018-04-13T00:01:25.839Z,8.31
2018-04-13T00:04:29.153Z,8.28
2018-04-13T00:07:33.225Z,8.28
2018-04-13T00:10:36.534Z,8.26
2018-04-13T00:13:39.838Z,8.25
2018-04-13T00:16:43.177Z,8.25
2018-04-13T00:19:46.473Z,8.27
2018-04-13T00:22:49.789Z,8.32
2018-04-13T00:25:53.086Z,8.31
2018-04-13T00:28:56.405Z,8.25
2018-04-13T00:31:59.696Z,8.27
2018-04-13T00:35:08.714Z,8.25
2018-04-13T00:38:12.070Z,8.31
2018-04-13T00:41:15.333Z,8.29
2018-04-13T00:44:18.653Z,8.29
2018-04-13T00:47:21.949Z,8.26
2018-04-13T00:50:25.262Z,8.23
2018-04-13T00:53:30.154Z,8.24
2018-04-13T00:56:33.490Z,8.20
2018-04-13T00:59:37.556Z,8.21
2018-04-13T01:02:40.889Z,8.26
2018-04-13T01:05:44.957Z,8.23
2018-04-13T01:08:49.041Z,8.23
2018-04-13T01:11:52.344Z,8.19
2018-04-13T01:14:55.665Z,8.22
2018-04-13T01:17:58.980Z,8.22
2018-04-13T01:21:02.278Z,8.26
2018-04-13T01:24:05.597Z,8.25
2018-04-13T01:27:08.897Z,8.25
2018-04-13T01:30:12.997Z,8.23
2018-04-13T01:33:16.298Z,8.17
2018-04-13T01:36:19.621Z,8.11
2018-04-13T01:39:23.716Z,8.17
2018-04-13T01:42:27.014Z,8.22
2018-04-13T01:45:30.327Z,8.21
2018-04-13T01:48:34.389Z,8.26
2018-04-13T01:51:37.710Z,8.31
2018-04-13T01:54:41.012Z,8.24
2018-04-13T01:57:44.330Z,8.26
2018-04-13T02:00:48.424Z,8.28
2018-04-13T02:03:51.756Z,8.23
2018-04-13T02:06:55.061Z,8.25
2018-04-13T02:09:59.150Z,8.30
2018-04-13T02:13:03.233Z,8.33
2018-04-13T02:16:06.583Z,8.34
2018-04-13T02:19:09.866Z,8.31
2018-04-13T02:22:13.162Z,8.37
2018-04-13T02:25:16.477Z,8.32
2018-04-13T02:28:19.773Z,8.32
2018-04-13T02:31:23.084Z,8.23
2018-04-13T02:34:26.494Z,8.19
2018-04-13T02:37:29.722Z,8.25
2018-04-13T02:40:33.794Z,8.26
2018-04-13T02:43:37.112Z,8.26
2018-04-13T02:46:40.425Z,8.30
2018-04-13T02:49:43.749Z,8.29
2018-04-13T02:52:47.074Z,8.32
2018-04-13T02:55:50.373Z,8.31
2018-04-13T02:58:54.463Z,8.32
2018-04-13T03:01:57.768Z,8.38
2018-04-13T03:05:01.090Z,8.37
2018-04-13T03:08:04.385Z,8.37
2018-04-13T03:11:07.705Z,8.35
2018-04-13T03:14:11.005Z,8.37
2018-04-13T03:17:14.330Z,8.34
2018-04-13T03:20:17.632Z,8.37
2018-04-13T03:23:21.809Z,8.36
2018-04-13T03:26:25.143Z,8.31
2018-04-13T03:29:28.448Z,8.30
2018-04-13T03:32:31.782Z,8.30
2018-04-13T03:35:35.083Z,8.32
2018-04-13T03:38:38.421Z,8.34
2018-04-13T03:41:42.515Z,8.36
2018-04-13T03:44:45.830Z,8.37
2018-04-13T03:47:49.914Z,8.36
2018-04-13T03:50:53.240Z,8.39
2018-04-13T03:53:57.315Z,8.50
2018-04-13T03:57:00.652Z,8.55
2018-04-13T04:00:04.717Z,8.51
2018-04-13T04:03:08.046Z,8.46
2018-04-13T04:06:11.344Z,8.44
2018-04-13T04:09:14.666Z,8.45
2018-04-13T04:12:17.976Z,8.43
2018-04-13T04:15:21.297Z,8.37
2018-04-13T04:18:24.606Z,8.32
2018-04-13T04:21:45.548Z,8.30
2018-04-13T04:25:07.154Z,8.31
2018-04-13T04:28:10.453Z,8.31
2018-04-13T04:31:14.620Z,8.26
2018-04-13T04:34:17.925Z,8.25
2018-04-13T04:37:21.249Z,8.21
2018-04-13T04:40:24.549Z,8.22
2018-04-13T04:43:27.890Z,8.23
2018-04-13T04:46:31.201Z,8.29
2018-04-13T04:49:35.290Z,8.26
2018-04-13T04:52:39.362Z,8.28
2018-04-13T04:55:42.693Z,8.27
2018-04-13T04:58:46.782Z,8.28
2018-04-13T05:01:50.121Z,8.27
2018-04-13T05:04:53.450Z,8.29
2018-04-13T05:07:56.758Z,8.33
2018-04-13T05:11:00.090Z,8.44
2018-04-13T05:14:04.156Z,8.45
2018-04-13T05:17:07.486Z,8.43
2018-04-13T05:20:10.805Z,8.40
2018-04-13T05:23:14.194Z,8.40
2018-04-13T05:26:17.517Z,8.38
2018-04-13T05:29:20.899Z,8.45
2018-04-13T05:32:24.168Z,8.50
2018-04-13T05:35:27.478Z,8.53
2018-04-13T05:38:30.806Z,8.54
2018-04-13T05:41:34.133Z,8.59
2018-04-13T05:44:37.453Z,8.58
2018-04-13T05:47:40.757Z,8.59
2018-04-13T05:50:44.081Z,8.61
2018-04-13T05:53:48.174Z,8.63
2018-04-13T05:56:51.493Z,8.60
2018-04-13T05:59:54.801Z,8.60
2018-04-13T06:02:58.129Z,8.61
2018-04-13T06:06:01.472Z,8.61
2018-04-13T06:09:06.378Z,8.66
2018-04-13T06:12:09.717Z,8.69
2018-04-13T06:15:13.018Z,8.71
2018-04-13T06:18:16.333Z,8.68
2018-04-13T06:21:19.660Z,8.67
2018-04-13T06:24:23.008Z,8.70
2018-04-13T06:27:27.070Z,8.74
2018-04-13T06:30:30.369Z,8.80
2018-04-13T06:33:33.697Z,8.80
2018-04-13T06:36:37.781Z,8.81
2018-04-13T06:39:41.078Z,8.83
2018-04-13T06:42:44.397Z,8.85
2018-04-13T06:45:47.718Z,8.88
2018-04-13T06:48:51.043Z,8.90
2018-04-13T06:51:54.373Z,8.94
2018-04-13T06:54:57.673Z,9.04
2018-04-13T06:58:00.997Z,9.07
2018-04-13T07:01:05.072Z,9.09
2018-04-13T07:04:08.413Z,9.14
2018-04-13T07:07:11.718Z,9.17
2018-04-13T07:10:15.042Z,9.18
2018-04-13T07:13:18.349Z,9.25
2018-04-13T07:16:21.674Z,9.25
2018-04-13T07:19:24.973Z,9.27
2018-04-13T07:22:28.293Z,9.31
2018-04-13T07:25:31.616Z,9.34
2018-04-13T07:28:34.920Z,9.37
2018-04-13T07:31:38.243Z,9.39
2018-04-13T07:34:41.548Z,9.42
2018-04-13T07:37:44.869Z,9.46
2018-04-13T07:40:48.934Z,9.52
2018-04-13T07:43:52.456Z,9.61
2018-04-13T07:46:56.352Z,9.68
2018-04-13T07:49:59.699Z,9.75
2018-04-13T07:53:03.753Z,9.87
2018-04-13T07:56:07.071Z,9.98
2018-04-13T07:59:10.397Z,10.02
2018-04-13T08:02:14.457Z,9.99
2018-04-13T08:05:17.789Z,10.02
2018-04-13T08:08:21.092Z,10.04
2018-04-13T08:11:24.425Z,10.07
2018-04-13T08:14:27.742Z,10.08
2018-04-13T08:17:31.078Z,10.07
2018-04-13T08:20:34.408Z,10.11
2018-04-13T08:23:37.709Z,10.08
2018-04-13T08:26:41.041Z,10.07
2018-04-13T08:29:44.379Z,10.16
2018-04-13T08:32:47.672Z,10.25
2018-04-13T08:35:51.749Z,10.22
2018-04-13T08:38:55.074Z,10.27
2018-04-13T08:41:58.385Z,10.35
2018-04-13T08:45:02.477Z,10.36
2018-04-13T08:48:05.777Z,10.40
2018-04-13T08:51:09.105Z,10.53
2018-04-13T08:54:12.508Z,10.75
2018-04-13T08:57:15.761Z,11.04
2018-04-13T09:00:19.090Z,11.20
2018-04-13T09:03:22.401Z,11.25
2018-04-13T09:06:25.799Z,11.19
2018-04-13T09:09:29.057Z,11.09
2018-04-13T09:12:33.163Z,11.10
2018-04-13T09:15:36.478Z,11.23
2018-04-13T09:18:40.581Z,11.35
2018-04-13T09:21:43.908Z,11.44
2018-04-13T09:24:47.241Z,11.47
2018-04-13T09:27:50.576Z,11.55
2018-04-13T09:30:54.661Z,11.61
2018-04-13T09:33:57.997Z,11.83
2018-04-13T09:37:02.069Z,12.15
2018-04-13T09:40:05.402Z,12.46
2018-04-13T09:43:09.482Z,12.58
2018-04-13T09:46:12.848Z,12.62
2018-04-13T09:49:16.901Z,12.65
2018-04-13T09:52:20.233Z,12.68
2018-04-13T09:55:23.546Z,12.68
2018-04-13T09:58:26.868Z,12.55
2018-04-13T10:01:35.805Z,12.36
2018-04-13T10:04:40.906Z,12.32
2018-04-13T10:07:44.232Z,12.15
2018-04-13T10:10:47.566Z,12.01
2018-04-13T10:13:51.657Z,12.12
2018-04-13T10:16:54.991Z,12.26
2018-04-13T10:19:59.060Z,12.40
2018-04-13T10:23:02.389Z,12.47
2018-04-13T10:26:05.721Z,12.37
2018-04-13T10:29:09.050Z,12.30
2018-04-13T10:32:12.356Z,12.28
2018-04-13T10:35:15.688Z,12.29
2018-04-13T10:38:19.764Z,12.32
2018-04-13T10:41:23.086Z,12.37
2018-04-13T10:44:26.423Z,12.41
2018-04-13T10:47:29.757Z,12.41
2018-04-13T10:50:33.101Z,12.43
2018-04-13T10:53:37.174Z,12.50
2018-04-13T10:56:40.517Z,12.59
2018-04-13T10:59:43.833Z,12.67
2018-04-13T11:02:47.181Z,12.75
2018-04-13T11:05:50.493Z,12.70
2018-04-13T11:08:54.587Z,12.65
2018-04-13T11:11:57.897Z,12.62
2018-04-13T11:15:01.222Z,12.63
2018-04-13T11:18:04.529Z,12.66
2018-04-13T11:21:07.854Z,12.72
2018-04-13T11:24:11.178Z,12.81
2018-04-13T11:27:14.498Z,12.83
2018-04-13T11:30:17.829Z,12.86
2018-04-13T11:33:21.864Z,12.83
2018-04-13T11:36:25.194Z,12.75
2018-04-13T11:39:28.518Z,12.71
2018-04-13T11:42:31.841Z,12.65
2018-04-13T11:45:35.171Z,12.58
2018-04-13T11:48:38.501Z,12.59
2018-04-13T11:51:42.497Z,12.57
2018-04-13T11:54:46.574Z,12.51
2018-04-13T11:57:49.917Z,12.34
2018-04-13T12:00:53.249Z,12.21
2018-04-13T12:03:56.573Z,12.11
2018-04-13T12:06:59.893Z,12.11
2018-04-13T12:10:03.983Z,12.09
2018-04-13T12:13:07.329Z,12.03
2018-04-13T12:16:11.405Z,11.94
2018-04-13T12:19:14.713Z,11.88
2018-04-13T12:22:18.812Z,11.73
2018-04-13T12:25:22.121Z,11.74
2018-04-13T12:28:25.444Z,11.86
2018-04-13T12:31:28.749Z,11.98
2018-04-13T12:34:32.079Z,12.05
2018-04-13T12:37:35.410Z,12.20
2018-04-13T12:40:39.513Z,12.26
2018-04-13T12:43:42.836Z,12.37
2018-04-13T12:46:46.909Z,12.46
2018-04-13T12:49:50.236Z,12.55
2018-04-13T12:52:54.311Z,12.52
2018-04-13T12:55:57.693Z,12.51
2018-04-13T12:59:00.981Z,12.42
2018-04-13T13:02:04.314Z,12.35
2018-04-13T13:05:07.629Z,12.26
2018-04-13T13:08:10.957Z,12.19
2018-04-13T13:11:14.289Z,12.11
2018-04-13T13:14:17.614Z,12.04
2018-04-13T13:17:20.945Z,12.04
2018-04-13T13:20:24.300Z,12.01
2018-04-13T13:23:27.614Z,11.92
2018-04-13T13:26:30.945Z,11.81
2018-04-13T13:29:34.273Z,11.78
2018-04-13T13:32:37.581Z,11.69
2018-04-13T13:35:40.909Z,11.64
2018-04-13T13:38:44.982Z,11.62
2018-04-13T13:41:48.330Z,11.66
2018-04-13T13:44:52.414Z,11.75
2018-04-13T13:47:55.743Z,11.69
2018-04-13T13:50:59.848Z,11.67
2018-04-13T13:54:03.154Z,11.69
2018-04-13T13:57:07.250Z,11.69
2018-04-13T14:00:10.569Z,11.61
2018-04-13T14:03:13.910Z,11.61
2018-04-13T14:06:17.221Z,11.57
2018-04-13T14:09:20.557Z,11.55
2018-04-13T14:12:23.870Z,11.57
2018-04-13T14:15:27.193Z,11.56
2018-04-13T14:18:30.500Z,11.56
2018-04-13T14:21:33.842Z,11.61
2018-04-13T14:24:37.953Z,11.66
2018-04-13T14:27:42.049Z,11.68
2018-04-13T14:30:45.400Z,11.73
2018-04-13T14:33:48.704Z,11.86
2018-04-13T14:36:52.043Z,11.91
2018-04-13T14:39:56.123Z,12.01
2018-04-13T14:42:59.477Z,12.04
2018-04-13T14:46:02.788Z,12.10
2018-04-13T14:49:06.125Z,12.04
2018-04-13T14:52:09.446Z,12.06
2018-04-13T14:55:13.547Z,12.07
2018-04-13T14:58:16.862Z,12.06
2018-04-13T15:01:20.958Z,12.09
2018-04-13T15:04:24.269Z,12.07
2018-04-13T15:07:27.597Z,12.02
2018-04-13T15:10:31.005Z,12.02
2018-04-13T15:13:34.328Z,12.00
2018-04-13T15:16:37.649Z,11.99
2018-04-13T15:19:40.970Z,11.96
2018-04-13T15:22:45.064Z,11.96
2018-04-13T15:25:48.385Z,11.91
2018-04-13T15:28:51.738Z,11.89
2018-04-13T15:31:55.049Z,11.83
2018-04-13T15:34:58.378Z,11.79
2018-04-13T15:38:01.693Z,11.69
2018-04-13T15:41:05.023Z,11.63
2018-04-13T15:44:08.332Z,11.60
2018-04-13T15:47:11.653Z,11.65
2018-04-13T15:50:14.965Z,11.63
2018-04-13T15:53:18.285Z,11.66
2018-04-13T15:56:21.631Z,11.70
2018-04-13T15:59:24.945Z,11.69
2018-04-13T16:02:29.033Z,11.70
2018-04-13T16:05:32.366Z,11.68
2018-04-13T16:08:35.702Z,11.65
2018-04-13T16:11:39.010Z,11.71
2018-04-13T16:14:42.354Z,11.78
2018-04-13T16:17:45.678Z,11.83
2018-04-13T16:20:49.021Z,11.83
2018-04-13T16:23:52.333Z,11.85
2018-04-13T16:26:56.421Z,11.80
2018-04-13T16:29:59.770Z,11.78
2018-04-13T16:33:03.086Z,11.73
2018-04-13T16:36:06.419Z,11.62
2018-04-13T16:39:09.733Z,11.59
2018-04-13T16:42:13.841Z,11.62
2018-04-13T16:45:17.945Z,11.59
2018-04-13T16:48:21.271Z,11.59
2018-04-13T16:51:24.577Z,11.58
2018-04-13T16:54:27.906Z,11.52
2018-04-13T16:57:31.218Z,11.48
2018-04-13T17:00:34.556Z,11.41
2018-04-13T17:03:37.885Z,11.30
2018-04-13T17:06:41.202Z,11.21
2018-04-13T17:09:44.525Z,11.12
2018-04-13T17:12:48.601Z,11.11
2018-04-13T17:15:51.933Z,11.04
2018-04-13T17:18:55.244Z,10.97
2018-04-13T17:21:58.566Z,10.90
2018-04-13T17:25:01.891Z,10.88
2018-04-13T17:28:05.210Z,10.83
2018-04-13T17:31:08.534Z,10.74
2018-04-13T17:34:12.624Z,10.64
2018-04-13T17:37:15.929Z,10.52
2018-04-13T17:40:19.266Z,10.48
2018-04-13T17:43:22.569Z,10.42
2018-04-13T17:46:25.889Z,10.40
2018-04-13T17:49:29.189Z,10.32
2018-04-13T17:52:32.519Z,10.27
2018-04-13T17:55:36.607Z,10.26
2018-04-13T17:58:39.910Z,10.23
2018-04-13T18:01:43.236Z,10.20
2018-04-13T18:04:47.321Z,10.12
2018-04-13T18:07:50.648Z,10.07
2018-04-13T18:10:54.720Z,10.04
2018-04-13T18:13:58.041Z,9.99
2018-04-13T18:17:02.117Z,9.92
2018-04-13T18:20:05.438Z,9.92
2018-04-13T18:23:08.737Z,9.87
2018-04-13T18:26:12.049Z,9.87
2018-04-13T18:29:16.116Z,9.84
2018-04-13T18:32:19.445Z,9.81
2018-04-13T18:35:22.768Z,9.82
2018-04-13T18:38:26.070Z,9.72
2018-04-13T18:41:29.397Z,9.64
2018-04-13T18:44:32.699Z,9.65
2018-04-13T18:47:36.054Z,9.60
2018-04-13T18:50:40.133Z,9.56
2018-04-13T18:53:43.454Z,9.48
2018-04-13T18:56:47.524Z,9.43
2018-04-13T18:59:50.868Z,9.45
2018-04-13T19:02:54.929Z,9.41
2018-04-13T19:05:58.253Z,9.38
2018-04-13T19:09:01.573Z,9.38
2018-04-13T19:12:04.877Z,9.36
2018-04-13T19:15:08.210Z,9.37
2018-04-13T19:18:11.527Z,9.37
2018-04-13T19:21:14.874Z,9.33
2018-04-13T19:24:18.192Z,9.30
2018-04-13T19:27:21.508Z,9.32
2018-04-13T19:30:24.804Z,9.27
2018-04-13T19:33:28.132Z,9.25
2018-04-13T19:36:31.433Z,9.25
2018-04-13T19:39:34.758Z,9.25
2018-04-13T19:42:38.098Z,9.21
2018-04-13T19:45:41.400Z,9.17
2018-04-13T19:48:44.717Z,9.11
2018-04-13T19:51:48.018Z,9.08
2018-04-13T19:54:51.352Z,9.08
2018-04-13T19:57:54.693Z,9.04
2018-04-13T20:00:57.989Z,9.01
2018-04-13T20:04:01.322Z,9.02
2018-04-13T20:07:05.394Z,9.02
2018-04-13T20:10:08.709Z,9.01
2018-04-13T20:13:12.013Z,9.06
2018-04-13T20:16:21.881Z,9.04
2018-04-13T20:19:25.977Z,9.04
2018-04-13T20:22:29.287Z,9.04
2018-04-13T20:25:33.381Z,9.08
2018-04-13T20:28:36.672Z,9.09
2018-04-13T20:31:40.001Z,9.06
2018-04-13T20:34:44.071Z,9.03
2018-04-13T20:37:47.398Z,9.03
2018-04-13T20:40:51.481Z,8.97
2018-04-13T20:43:54.807Z,8.97
2018-04-13T20:46:58.901Z,8.97
2018-04-13T20:50:02.224Z,8.99
2018-04-13T20:53:06.314Z,8.93
2018-04-13T20:56:09.634Z,8.98
2018-04-13T20:59:13.726Z,9.08
2018-04-13T21:02:17.020Z,9.05
2018-04-13T21:05:20.329Z,9.08
2018-04-13T21:08:23.645Z,9.08
2018-04-13T21:11:27.725Z,9.09
2018-04-13T21:14:31.053Z,9.04
2018-04-13T21:17:35.116Z,9.05
2018-04-13T21:20:38.436Z,8.97
2018-04-13T21:23:41.750Z,9.03
2018-04-13T21:26:45.838Z,9.03
2018-04-13T21:29:49.149Z,9.09
2018-04-13T21:32:53.253Z,9.13
2018-04-13T21:35:56.581Z,9.07
2018-04-13T21:39:00.661Z,9.05
2018-04-13T21:42:03.974Z,9.02
2018-04-13T21:45:07.303Z,9.05
2018-04-13T21:48:10.630Z,9.00
2018-04-13T21:51:13.945Z,8.96
2018-04-13T21:54:17.245Z,9.00
2018-04-13T21:57:20.564Z,8.95
2018-04-13T22:00:23.869Z,8.91
2018-04-13T22:03:27.949Z,8.86
2018-04-13T22:06:31.249Z,8.84
2018-04-13T22:09:34.571Z,8.80
2018-04-13T22:12:56.430Z,8.79
2018-04-13T22:15:59.753Z,8.74
2018-04-13T22:19:03.050Z,8.68
2018-04-13T22:22:06.371Z,8.62
2018-04-13T22:25:09.688Z,8.61
2018-04-13T22:28:13.749Z,8.62
2018-04-13T22:31:17.069Z,8.70
2018-04-13T22:34:20.373Z,8.79
2018-04-13T22:37:23.714Z,8.83
2018-04-13T22:40:27.013Z,8.82
2018-04-13T22:43:30.446Z,8.76
2018-04-13T22:46:33.768Z,8.81
2018-04-13T22:49:37.081Z,8.79
2018-04-13T22:52:41.189Z,8.78
2018-04-13T22:55:44.484Z,8.72
2018-04-13T22:58:47.801Z,8.72
2018-04-13T23:01:51.886Z,8.73
2018-04-13T23:04:55.210Z,8.67
2018-04-13T23:07:58.513Z,8.64
2018-04-13T23:11:01.809Z,8.63
2018-04-13T23:14:05.896Z,8.65
2018-04-13T23:17:09.203Z,8.67
2018-04-13T23:20:13.289Z,8.66
2018-04-13T23:23:16.591Z,8.70
2018-04-13T23:26:19.909Z,8.71
2018-04-13T23:29:23.968Z,8.72
2018-04-13T23:32:27.285Z,8.70
2018-04-13T23:35:30.590Z,8.68
2018-04-13T23:38:33.908Z,8.66
2018-04-13T23:41:37.992Z,8.64
2018-04-13T23:44:41.291Z,8.66
2018-04-13T23:47:44.609Z,8.67
2018-04-13T23:50:47.907Z,8.73
2018-04-13T23:53:51.237Z,8.70
2018-04-13T23:56:54.541Z,8.68
2018-04-13T23:59:57.857Z,8.67
